Schedule Details


Flight Number: CTN411
Departure: Frankfurt/main (EDDF) at 18:00
Arrival: Franjo Tudman (LDZA) at 19:25
Route: NOMBO UZ738 MUN UM867 VAROB DCT PIKIT DCT ARGOM

Weather Information
EDDF 172150Z VRB02KT CAVOK 23/17 Q1013 NOSIG
LDZA 172130Z VRB01KT CAVOK 21/16 Q1017 NOSIG
Schedule Frequency

Route Map